Time;durP1;ratioP1;P1;durP2;ratioP2;P2;SDS_P1;SDS_P2;PMS_P1;PMS_P2;Temp;Humidity;BMP_temperature;BMP_pressure;BME280_temperature;BME280_humidity;BME280_pressure;Samples;Min_cycle;Max_cycle;Signal;HPM_P1;HPM_P2
2021/11/13 00:00:35;;;;;;;121.30;49.73;;;;;;;5.63;81.07;101716.11;1693839;82;21088;-72
2021/11/13 00:03:04;;;;;;;134.10;50.48;;;;;;;5.63;81.28;101718.34;1693795;83;21081;-72
2021/11/13 00:05:31;;;;;;;111.32;48.42;;;;;;;5.59;81.34;101714.13;1694106;83;21637;-72
2021/11/13 00:07:57;;;;;;;118.47;48.48;;;;;;;5.57;81.66;101712.73;1694190;82;21579;-72
2021/11/13 00:10:27;;;;;;;107.20;46.95;;;;;;;5.53;81.61;101712.05;1694307;82;21209;-72
2021/11/13 00:12:55;;;;;;;119.20;47.78;;;;;;;5.52;81.88;101706.34;1694302;84;21073;-72
2021/11/13 00:15:22;;;;;;;117.17;48.35;;;;;;;5.49;81.94;101707.45;1694311;83;21596;-72
2021/11/13 00:17:50;;;;;;;111.50;47.05;;;;;;;5.49;82.20;101706.56;1693730;84;21073;-72
2021/11/13 00:20:17;;;;;;;104.05;44.75;;;;;;;5.49;82.28;101709.17;1694112;83;21085;-72
2021/11/13 00:22:44;;;;;;;129.18;46.28;;;;;;;5.48;82.29;101705.67;1693774;82;21161;-73
2021/11/13 00:25:10;;;;;;;92.60;45.05;;;;;;;5.48;82.56;101716.11;1693983;82;21052;-74
2021/11/13 00:27:37;;;;;;;88.85;43.58;;;;;;;5.50;82.67;101710.95;1693800;82;21724;-73
2021/11/13 00:30:05;;;;;;;81.97;41.68;;;;;;;5.46;82.47;101705.95;1693963;84;21065;-73
2021/11/13 00:32:31;;;;;;;96.40;43.83;;;;;;;5.45;82.71;101706.36;1693943;82;21141;-73
2021/11/13 00:34:58;;;;;;;100.02;41.92;;;;;;;5.48;82.90;101706.98;1693904;84;21222;-72
2021/11/13 00:37:25;;;;;;;118.37;41.30;;;;;;;5.50;82.87;101705.73;1693900;83;21109;-72
2021/11/13 00:39:51;;;;;;;94.28;39.95;;;;;;;5.50;82.90;101705.73;1694078;82;21799;-72
2021/11/13 00:42:18;;;;;;;81.55;38.55;;;;;;;5.47;82.80;101705.58;1694051;82;21022;-73
2021/11/13 00:44:44;;;;;;;108.20;39.18;;;;;;;5.45;82.68;101698.95;1693932;84;21097;-73
2021/11/13 00:47:11;;;;;;;78.57;35.78;;;;;;;5.41;82.75;101693.94;1693912;84;21073;-73
2021/11/13 00:49:38;;;;;;;84.42;37.35;;;;;;;5.39;82.65;101705.11;1693871;83;21097;-73
2021/11/13 00:52:05;;;;;;;72.82;36.17;;;;;;;5.36;82.93;101699.27;1693983;84;21215;-73
2021/11/13 00:54:33;;;;;;;84.47;36.25;;;;;;;5.32;82.87;101695.09;1693903;84;21657;-72
2021/11/13 00:57:01;;;;;;;79.47;34.65;;;;;;;5.30;82.96;101701.93;1695651;82;21042;-72
2021/11/13 00:59:31;;;;;;;93.92;35.10;;;;;;;5.28;83.04;101707.05;1696534;84;21563;-73
2021/11/13 01:01:59;;;;;;;75.85;32.80;;;;;;;5.23;82.94;101702.83;1696414;83;21093;-73
2021/11/13 01:04:26;;;;;;;76.72;32.65;;;;;;;5.15;82.79;101699.27;1696706;83;21700;-73
2021/11/13 01:06:52;;;;;;;78.02;33.78;;;;;;;5.10;82.86;101700.27;1696187;84;21081;-73
2021/11/13 01:09:19;;;;;;;88.92;31.25;;;;;;;5.01;82.79;101694.09;1696590;84;21076;-73
2021/11/13 01:11:46;;;;;;;66.77;30.77;;;;;;;4.97;82.84;101701.62;1696507;84;21181;-73
2021/11/13 01:14:13;;;;;;;70.28;30.45;;;;;;;4.91;82.91;101695.61;1696829;84;21289;-72
2021/11/13 01:16:39;;;;;;;75.28;29.32;;;;;;;4.90;82.95;101689.91;1696690;83;22083;-72
2021/11/13 01:19:07;;;;;;;70.75;31.23;;;;;;;4.85;82.93;101688.30;1696635;84;21061;-73
2021/11/13 01:21:34;;;;;;;79.37;31.85;;;;;;;4.86;83.20;101681.37;1696699;84;21073;-72
2021/11/13 01:24:01;;;;;;;74.05;33.67;;;;;;;4.91;83.48;101678.66;1696727;83;21096;-72
2021/11/13 01:26:28;;;;;;;57.78;30.85;;;;;;;4.93;83.44;101682.67;1696635;84;21116;-72
2021/11/13 01:28:54;;;;;;;65.60;30.62;;;;;;;4.92;83.37;101676.94;1696533;84;21760;-73
2021/11/13 01:31:21;;;;;;;62.48;29.32;;;;;;;4.90;83.36;101677.25;1696600;83;21648;-73
2021/11/13 01:33:48;;;;;;;55.80;27.52;;;;;;;4.87;83.32;101678.86;1696646;84;20999;-73
2021/11/13 01:36:14;;;;;;;56.53;26.37;;;;;;;4.82;83.25;101675.09;1696674;84;21045;-73
2021/11/13 01:38:43;;;;;;;40.03;25.75;;;;;;;4.78;83.24;101670.45;1696630;84;21586;-73
2021/11/13 01:41:09;;;;;;;40.58;25.57;;;;;;;4.72;83.16;101676.59;1696825;83;22266;-73
2021/11/13 01:43:39;;;;;;;43.78;26.60;;;;;;;4.70;83.29;101669.49;1696677;84;21049;-72
2021/11/13 01:46:09;;;;;;;38.23;25.60;;;;;;;4.71;83.38;101673.51;1696966;83;21086;-72
2021/11/13 01:48:36;;;;;;;44.73;27.07;;;;;;;4.73;83.42;101672.27;1696812;83;21212;-73
2021/11/13 01:51:18;;;;;;;42.45;27.75;;;;;;;4.74;83.59;101671.07;1697068;83;21080;-73
2021/11/13 01:53:47;;;;;;;44.58;26.50;;;;;;;4.73;83.44;101667.98;1677807;84;21785;-73
2021/11/13 01:56:17;;;;;;;39.95;25.15;;;;;;;4.65;83.22;101670.48;1695175;83;21105;-73
2021/11/13 01:58:41;;;;;;;44.85;28.40;;;;;;;4.64;83.26;101663.48;1693754;82;21385;-74
2021/11/13 02:01:08;;;;;;;36.90;27.40;;;;;;;4.63;83.16;101648.62;1694299;84;21054;-73
2021/11/13 02:03:35;;;;;;;44.93;29.27;;;;;;;4.62;83.24;101669.01;1694088;82;21594;-73
2021/11/13 02:06:02;;;;;;;53.30;30.48;;;;;;;4.58;83.02;101657.86;1694486;84;21775;-73
2021/11/13 02:08:28;;;;;;;45.80;28.20;;;;;;;4.57;83.13;101662.59;1694273;83;21073;-73
2021/11/13 02:10:55;;;;;;;47.20;28.55;;;;;;;4.55;83.18;101655.97;1694175;82;21682;-73
2021/11/13 02:13:22;;;;;;;48.33;29.07;;;;;;;4.51;83.21;101651.78;1694174;84;21547;-73
2021/11/13 02:15:48;;;;;;;51.68;29.02;;;;;;;4.45;83.09;101651.88;1694016;83;21109;-73
2021/11/13 02:18:15;;;;;;;53.38;30.65;;;;;;;4.43;83.31;101653.86;1693828;82;21864;-73
2021/11/13 02:20:43;;;;;;;52.67;29.72;;;;;;;4.44;83.42;101647.45;1693874;82;21081;-73
2021/11/13 02:23:16;;;;;;;50.75;30.45;;;;;;;4.40;83.17;101650.67;1693965;83;21071;-73
2021/11/13 02:25:43;;;;;;;56.90;31.55;;;;;;;4.37;83.22;101640.45;1694003;83;21097;-73
2021/11/13 02:28:15;;;;;;;52.05;31.57;;;;;;;4.39;83.35;101644.98;1663894;84;21638;-73
2021/11/13 02:30:41;;;;;;;54.75;30.70;;;;;;;4.43;83.32;101643.44;1693952;84;21770;-73
2021/11/13 02:33:08;;;;;;;60.55;31.50;;;;;;;4.41;83.27;101647.28;1693940;82;21057;-73
2021/11/13 02:35:35;;;;;;;56.75;29.75;;;;;;;4.40;83.22;101655.88;1693823;82;21535;-73
2021/11/13 02:38:17;;;;;;;53.23;32.33;;;;;;;4.38;83.16;101647.48;1693590;82;21230;-73
2021/11/13 02:40:54;;;;;;;55.12;31.68;;;;;;;4.40;83.31;101649.78;1694063;83;21088;-73
2021/11/13 02:43:20;;;;;;;49.70;29.82;;;;;;;4.41;83.32;101645.05;1693940;83;21972;-72
2021/11/13 02:45:47;;;;;;;58.95;30.97;;;;;;;4.42;83.25;101650.36;1693930;83;21442;-73
2021/11/13 02:48:14;;;;;;;57.30;29.75;;;;;;;4.45;83.31;101647.08;1693983;84;21077;-73
2021/11/13 02:50:42;;;;;;;52.00;32.25;;;;;;;4.47;83.33;101637.64;1693918;83;21085;-73
2021/11/13 02:53:15;;;;;;;59.85;30.17;;;;;;;4.53;83.42;101633.22;1694239;82;21065;-72
2021/11/13 02:55:42;;;;;;;53.60;30.57;;;;;;;4.57;83.42;101632.19;1694195;83;22829;-73
2021/11/13 02:58:09;;;;;;;52.25;30.97;;;;;;;4.57;83.22;101623.48;1693789;82;21062;-73
2021/11/13 03:00:35;;;;;;;50.85;31.00;;;;;;;4.56;83.22;101635.62;1694055;83;21154;-73
2021/11/13 03:03:02;;;;;;;50.67;30.15;;;;;;;4.57;83.19;101641.73;1694075;84;21147;-73
2021/11/13 03:05:35;;;;;;;59.35;29.57;;;;;;;4.58;83.34;101643.14;1693871;84;21575;-73
2021/11/13 03:08:05;;;;;;;70.67;30.62;;;;;;;4.60;83.43;101644.13;1662521;84;21220;-73
2021/11/13 03:10:36;;;;;;;62.25;29.10;;;;;;;4.63;83.33;101642.11;1694359;84;21080;-73
2021/11/13 03:13:03;;;;;;;60.85;30.57;;;;;;;4.66;83.37;101630.58;1694239;83;21065;-73
2021/11/13 03:15:30;;;;;;;60.38;31.80;;;;;;;4.70;83.40;101623.44;1694031;82;21513;-73
2021/11/13 03:18:01;;;;;;;71.40;30.65;;;;;;;4.70;83.27;101627.35;1694177;84;21089;-73
2021/11/13 03:20:28;;;;;;;72.30;32.88;;;;;;;4.72;83.37;101629.66;1693604;84;23304;-73
2021/11/13 03:23:02;;;;;;;75.60;32.08;;;;;;;4.76;83.47;101631.64;1693899;83;21580;-73
2021/11/13 03:25:39;;;;;;;86.97;34.67;;;;;;;4.80;83.56;101631.02;1694307;84;21105;-73
2021/11/13 03:28:05;;;;;;;72.72;32.17;;;;;;;4.83;83.41;101628.61;1693795;83;21093;-73
2021/11/13 03:30:32;;;;;;;76.92;32.73;;;;;;;4.82;83.38;101622.91;1694232;82;21666;-73
2021/11/13 03:32:59;;;;;;;63.63;35.20;;;;;;;4.81;83.37;101625.02;1694121;84;22427;-73
2021/11/13 03:35:30;;;;;;;63.33;33.15;;;;;;;4.84;83.62;101630.81;1694061;83;21610;-72
2021/11/13 03:38:02;;;;;;;62.70;31.85;;;;;;;4.88;83.61;101622.39;1693773;84;21116;-73
2021/11/13 03:40:30;;;;;;;;;;;;;;;4.93;83.65;101622.66;1664258;83;21571;-73
2021/11/13 03:42:57;;;;;;;67.67;30.57;;;;;;;4.98;83.67;101622.55;1694151;84;20589;-73
2021/11/13 03:45:24;;;;;;;56.75;31.80;;;;;;;4.96;83.54;101623.76;1693996;83;22584;-73
2021/11/13 03:47:54;;;;;;;58.87;30.60;;;;;;;4.96;83.58;101617.64;1693818;83;21076;-73
2021/11/13 03:50:19;;;;;;;62.25;31.17;;;;;;;4.98;83.65;101624.75;1693606;83;21594;-73
2021/11/13 03:52:46;;;;;;;70.05;31.55;;;;;;;5.01;83.68;101624.02;1693885;84;21160;-73
2021/11/13 03:55:13;;;;;;;72.25;32.08;;;;;;;5.03;83.68;101623.71;1694145;84;21112;-73
2021/11/13 03:57:39;;;;;;;62.53;32.65;;;;;;;5.06;83.69;101623.50;1693816;82;21743;-72
2021/11/13 04:00:09;;;;;;;67.10;32.35;;;;;;;5.09;83.65;101623.19;1693772;83;21566;-72
2021/11/13 04:02:35;;;;;;;65.72;32.25;;;;;;;5.10;83.67;101614.56;1694208;83;21081;-72
2021/11/13 04:05:02;;;;;;;60.38;32.35;;;;;;;5.12;83.79;101607.31;1694157;83;21606;-73
2021/11/13 04:07:29;;;;;;;70.08;32.10;;;;;;;5.18;83.75;101613.31;1693680;83;21069;-73
2021/11/13 04:09:55;;;;;;;63.17;32.90;;;;;;;5.19;83.69;101616.02;1693957;83;22552;-72
2021/11/13 04:12:22;;;;;;;63.08;32.75;;;;;;;5.21;83.81;101617.42;1693960;84;21105;-72
2021/11/13 04:14:49;;;;;;;69.47;32.70;;;;;;;5.24;83.82;101617.62;1693981;84;21543;-73
2021/11/13 04:17:16;;;;;;;65.90;33.65;;;;;;;5.26;83.87;101610.78;1694031;83;21159;-73
2021/11/13 04:19:42;;;;;;;65.10;33.00;;;;;;;5.31;83.85;101605.81;1693873;84;21582;-72
2021/11/13 04:22:09;;;;;;;72.90;34.40;;;;;;;5.33;83.88;101603.81;1693939;83;21740;-73
2021/11/13 04:24:36;;;;;;;80.90;34.73;;;;;;;5.35;83.87;101603.88;1693913;82;21095;-72
2021/11/13 04:27:03;;;;;;;82.88;35.17;;;;;;;5.36;83.86;101598.76;1694147;83;21759;-72
2021/11/13 04:29:30;;;;;;;76.72;35.15;;;;;;;5.35;83.72;101594.74;1693967;84;21100;-72
2021/11/13 04:31:58;;;;;;;81.75;33.53;;;;;;;5.36;83.85;101601.78;1662025;84;21590;-73
2021/11/13 04:34:26;;;;;;;76.37;34.90;;;;;;;5.35;83.81;101599.59;1694264;83;22215;-72
2021/11/13 04:36:54;;;;;;;69.55;35.68;;;;;;;5.36;83.85;101609.61;1694053;82;21129;-72
2021/11/13 04:39:23;;;;;;;56.13;33.23;;;;;;;5.35;83.85;101612.64;1694205;82;21022;-72
2021/11/13 04:41:50;;;;;;;60.60;34.13;;;;;;;5.35;83.77;101610.03;1694020;83;21077;-72
2021/11/13 04:44:17;;;;;;;64.82;36.68;;;;;;;5.35;83.84;101602.20;1694278;84;21063;-73
2021/11/13 04:46:44;;;;;;;64.95;36.17;;;;;;;5.36;83.88;101595.25;1694188;83;21734;-72
2021/11/13 04:49:12;;;;;;;59.83;34.20;;;;;;;5.38;83.89;101597.55;1664270;83;21062;-72
2021/11/13 04:51:39;;;;;;;55.85;33.60;;;;;;;5.40;84.00;101603.34;1694048;82;21069;-72
2021/11/13 04:54:06;;;;;;;64.27;37.75;;;;;;;5.42;83.98;101599.14;1694053;83;21592;-73
2021/11/13 04:56:33;;;;;;;61.40;36.38;;;;;;;5.45;83.97;101603.64;1694072;82;21567;-73
2021/11/13 04:59:00;;;;;;;70.72;37.70;;;;;;;5.44;83.93;101594.91;1693754;82;21734;-72
2021/11/13 05:01:26;;;;;;;70.00;38.70;;;;;;;5.42;83.81;101587.40;1693890;82;21666;-72
2021/11/13 05:03:53;;;;;;;72.15;38.98;;;;;;;5.41;83.82;101585.99;1693971;83;21069;-72
2021/11/13 05:06:21;;;;;;;67.87;37.55;;;;;;;5.41;83.93;101589.91;1694159;83;21573;-72
2021/11/13 05:08:48;;;;;;;67.30;37.38;;;;;;;5.43;83.91;101585.67;1693672;82;21144;-72
2021/11/13 05:11:15;;;;;;;59.45;35.20;;;;;;;5.41;83.87;101589.50;1693853;82;22508;-72
2021/11/13 05:13:41;;;;;;;55.20;33.75;;;;;;;5.42;83.88;101587.78;1693812;83;21350;-73
2021/11/13 05:16:08;;;;;;;58.25;34.08;;;;;;;5.41;83.83;101591.22;1693643;84;21054;-72
2021/11/13 05:18:35;;;;;;;56.48;31.90;;;;;;;5.42;83.92;101583.86;1693985;83;21078;-72
2021/11/13 05:21:04;;;;;;;60.05;33.18;;;;;;;5.44;83.86;101575.71;1693996;83;21615;-73
2021/11/13 05:23:30;;;;;;;49.95;30.88;;;;;;;5.43;83.85;101579.15;1694026;83;23691;-73
2021/11/13 05:25:57;;;;;;;61.77;35.05;;;;;;;5.40;83.74;101586.79;1693806;83;21101;-73
2021/11/13 05:28:24;;;;;;;61.15;35.17;;;;;;;5.39;83.82;101577.17;1694013;82;21077;-75
2021/11/13 05:30:50;;;;;;;55.43;34.18;;;;;;;;;;1693871;83;21057;-76
2021/11/13 05:33:17;;;;;;;56.55;35.45;;;;;;;5.38;83.83;101558.39;1693609;82;21074;-76
2021/11/13 05:35:44;;;;;;;67.92;39.10;;;;;;;5.37;83.87;101558.80;1693796;83;21737;-76
2021/11/13 05:38:13;;;;;;;68.70;40.58;;;;;;;5.38;83.94;101572.75;1661835;84;21300;-76
2021/11/13 05:40:42;;;;;;;68.33;38.70;;;;;;;5.40;84.06;101577.23;1693717;82;21076;-76
2021/11/13 05:43:11;;;;;;;65.83;37.55;;;;;;;5.42;84.06;101579.56;1694013;83;21061;-76
2021/11/13 05:45:39;;;;;;;68.67;39.00;;;;;;;5.43;84.04;101579.15;1693721;83;21623;-76
2021/11/13 05:48:06;;;;;;;66.25;39.05;;;;;;;5.45;84.12;101593.19;1693895;84;21811;-73
2021/11/13 05:50:33;;;;;;;68.10;39.75;;;;;;;5.44;84.09;101594.91;1693932;83;21113;-74
2021/11/13 05:52:59;;;;;;;72.70;40.78;;;;;;;5.43;84.10;101595.70;1694051;83;21085;-76
2021/11/13 05:55:26;;;;;;;67.12;37.73;;;;;;;5.42;84.22;101595.23;1694011;84;21089;-75
2021/11/13 05:57:53;;;;;;;71.90;40.73;;;;;;;5.44;84.32;101594.91;1693830;82;21092;-74
2021/11/13 06:00:23;;;;;;;70.70;39.13;;;;;;;5.45;84.26;101592.78;1693584;83;21303;-74
2021/11/13 06:02:49;;;;;;;69.45;40.12;;;;;;;5.47;84.37;101603.32;1694194;82;21031;-74
2021/11/13 06:05:16;;;;;;;65.42;39.42;;;;;;;5.49;84.37;101599.09;1693696;83;21080;-74
2021/11/13 06:07:43;;;;;;;65.57;37.78;;;;;;;5.48;84.33;101596.37;1693747;84;21015;-74
2021/11/13 06:10:11;;;;;;;63.73;37.85;;;;;;;5.47;84.46;101598.09;1693911;84;21125;-73
2021/11/13 06:12:38;;;;;;;71.30;39.13;;;;;;;5.49;84.43;101604.31;1641969;83;21770;-74
2021/11/13 06:15:05;;;;;;;68.45;39.70;;;;;;;5.48;84.41;101597.30;1693822;84;21038;-73
2021/11/13 06:17:32;;;;;;;68.83;39.92;;;;;;;5.48;84.43;101592.08;1693842;83;21090;-73
2021/11/13 06:19:59;;;;;;;74.37;42.33;;;;;;;5.48;84.46;101591.16;1693525;84;21095;-73
2021/11/13 06:22:26;;;;;;;66.80;40.48;;;;;;;5.48;84.49;101597.68;1693987;82;21717;-73
2021/11/13 06:24:54;;;;;;;70.28;40.85;;;;;;;5.48;84.51;101596.37;1693779;83;21840;-74
2021/11/13 06:27:21;;;;;;;68.67;39.53;;;;;;;5.47;84.53;101603.73;1687432;83;21125;-74
2021/11/13 06:29:48;;;;;;;65.62;39.65;;;;;;;5.46;84.50;101604.11;1694078;83;21101;-73
2021/11/13 06:32:17;;;;;;;63.13;37.38;;;;;;;5.44;84.55;101598.83;1692005;82;21536;-72
2021/11/13 06:34:44;;;;;;;59.03;35.48;;;;;;;5.45;84.57;101595.39;1694105;83;21049;-72
2021/11/13 06:37:13;;;;;;;63.33;36.93;;;;;;;5.44;84.55;101589.69;1693962;83;22587;-72
2021/11/13 06:39:40;;;;;;;61.23;35.35;;;;;;;5.45;84.61;101587.97;1692968;83;21188;-72
2021/11/13 06:42:07;;;;;;;59.42;35.95;;;;;;;5.45;84.60;101586.25;1687662;83;21081;-72
2021/11/13 06:44:34;;;;;;;60.25;35.63;;;;;;;5.42;84.53;101593.92;1687618;83;21022;-73
2021/11/13 06:47:04;;;;;;;61.33;35.95;;;;;;;5.43;84.71;101592.20;1686934;85;21100;-72
2021/11/13 06:49:34;;;;;;;66.82;37.53;;;;;;;5.43;84.65;101596.13;1670119;83;21786;-74
2021/11/13 06:52:01;;;;;;;61.80;36.80;;;;;;;5.44;84.73;101600.52;1677866;84;21706;-73
2021/11/13 06:54:27;;;;;;;57.70;35.58;;;;;;;5.47;84.69;101594.19;1688380;84;21204;-73
2021/11/13 06:57:01;;;;;;;64.20;36.45;;;;;;;5.48;84.81;101593.39;1659233;84;21450;-84
2021/11/13 06:59:29;;;;;;;61.08;37.25;;;;;;;5.50;84.85;101590.84;1691505;83;21662;-84
2021/11/13 07:01:56;;;;;;;66.57;37.40;;;;;;;5.53;84.87;101590.61;1692292;84;21814;-84
2021/11/13 07:04:26;;;;;;;62.93;36.80;;;;;;;5.55;84.89;101588.09;1692526;84;21100;-84
2021/11/13 07:06:53;;;;;;;64.62;37.90;;;;;;;5.55;84.86;101598.13;1692547;84;21180;-84
2021/11/13 07:09:23;;;;;;;61.50;36.65;;;;;;;5.59;84.95;101597.91;1692444;84;21105;-84
2021/11/13 07:11:52;;;;;;;63.45;36.68;;;;;;;5.60;84.95;101599.31;1692414;84;21610;-84
2021/11/13 07:14:18;;;;;;;61.37;36.90;;;;;;;5.62;84.83;101602.91;1692576;84;23621;-85
2021/11/13 07:16:47;;;;;;;68.85;39.08;;;;;;;5.62;84.89;101597.69;1666119;84;21089;-84
2021/11/13 07:19:13;;;;;;;64.62;36.95;;;;;;;5.65;84.92;101600.49;1692728;84;21081;-79
2021/11/13 07:21:40;;;;;;;62.20;38.67;;;;;;;5.63;84.85;101602.12;1692199;84;21092;-77
2021/11/13 07:24:08;;;;;;;60.67;36.08;;;;;;;5.63;84.93;101607.34;1693028;84;21164;-76
2021/11/13 07:26:35;;;;;;;69.10;38.45;;;;;;;5.68;85.03;101604.98;1692822;84;21704;-77
2021/11/13 07:29:08;;;;;;;65.55;36.50;;;;;;;5.71;85.03;101596.45;1691995;84;21085;-81
2021/11/13 07:31:30;;;;;;;65.08;35.17;;;;;;;5.75;85.08;101591.47;1690827;84;21081;-81
2021/11/13 07:33:57;;;;;;;65.80;39.13;;;;;;;5.79;85.10;101589.52;1691897;84;21089;-81
2021/11/13 07:36:24;;;;;;;66.05;38.15;;;;;;;5.83;85.06;101587.98;1691786;84;21654;-81
2021/11/13 07:38:51;;;;;;;70.67;35.38;;;;;;;5.87;85.09;101588.66;1691990;84;22521;-80
2021/11/13 07:41:18;;;;;;;65.92;37.73;;;;;;;5.89;85.01;101587.44;1692081;84;21183;-81
2021/11/13 07:43:45;;;;;;;65.85;38.53;;;;;;;5.89;85.10;101584.41;1692182;84;21035;-80
2021/11/13 07:46:12;;;;;;;62.35;36.55;;;;;;;5.92;85.00;101578.48;1692138;84;21865;-81
2021/11/13 07:48:40;;;;;;;65.70;36.73;;;;;;;5.94;85.03;101575.55;1665915;84;21191;-80
2021/11/13 07:51:08;;;;;;;66.40;37.60;;;;;;;5.94;84.96;101579.47;1691979;84;22569;-81
2021/11/13 07:53:37;;;;;;;65.05;36.70;;;;;;;5.95;85.02;101579.94;1692000;84;21089;-81
2021/11/13 07:56:04;;;;;;;68.62;36.70;;;;;;;5.96;85.03;101573.95;1692173;84;21097;-81
2021/11/13 07:58:31;;;;;;;59.75;35.13;;;;;;;5.95;85.03;101570.45;1690877;83;21547;-81
2021/11/13 08:00:57;;;;;;;66.60;36.10;;;;;;;5.99;85.05;101572.84;1688213;83;21089;-81
2021/11/13 08:03:24;;;;;;;66.65;36.88;;;;;;;6.00;85.11;101574.20;1688314;83;22004;-82
2021/11/13 08:05:51;;;;;;;70.42;37.10;;;;;;;6.02;85.13;101576.52;1688440;83;21563;-85
2021/11/13 08:08:18;;;;;;;61.90;35.52;;;;;;;6.04;85.10;101572.66;1688514;83;21646;-82
2021/11/13 08:10:46;;;;;;;65.35;35.98;;;;;;;6.06;85.05;101572.75;1688377;84;21106;-77
2021/11/13 08:13:20;;;;;;;64.42;35.92;;;;;;;6.08;85.10;101574.66;1688441;83;21125;-78
2021/11/13 08:15:48;;;;;;;64.53;35.98;;;;;;;6.00;85.06;101555.02;1688196;83;21763;-78
2021/11/13 08:18:17;;;;;;;61.55;36.00;;;;;;;6.13;85.20;101555.30;1687626;84;21480;-78
2021/11/13 08:20:44;;;;;;;66.05;34.40;;;;;;;6.18;85.21;101552.55;1688224;83;21124;-78
2021/11/13 08:23:15;;;;;;;63.17;33.42;;;;;;;6.20;85.14;101549.61;1658835;84;21627;-77
2021/11/13 08:25:43;;;;;;;63.73;32.80;;;;;;;6.22;85.13;101547.97;1688482;83;21112;-75
2021/11/13 08:28:10;;;;;;;56.70;32.58;;;;;;;6.26;85.29;101555.16;1688622;84;21801;-80
2021/11/13 08:30:37;;;;;;;62.55;32.53;;;;;;;6.30;85.22;101553.20;1688446;84;21650;-81
2021/11/13 08:33:04;;;;;;;58.15;31.23;;;;;;;6.37;85.29;101545.30;1687754;84;22823;-80
2021/11/13 08:35:30;;;;;;;57.05;32.20;;;;;;;6.40;85.26;101548.98;1687658;84;21108;-81
2021/11/13 08:37:58;;;;;;;56.13;31.02;;;;;;;6.48;85.36;101569.02;1688182;83;21105;-81
2021/11/13 08:40:25;;;;;;;59.60;30.70;;;;;;;6.56;85.37;101573.36;1688433;84;21777;-81
2021/11/13 08:42:52;;;;;;;56.20;31.00;;;;;;;6.60;85.26;101573.59;1688290;84;21066;-81
2021/11/13 08:45:19;;;;;;;58.50;32.53;;;;;;;6.65;85.22;101583.02;1688321;83;21035;-81
2021/11/13 08:47:45;;;;;;;63.55;35.10;;;;;;;6.68;85.14;101576.66;1688356;83;21132;-81
2021/11/13 08:50:19;;;;;;;55.35;30.82;;;;;;;6.69;85.06;101567.08;1688386;83;21145;-80
2021/11/13 08:52:50;;;;;;;52.75;29.85;;;;;;;6.72;84.96;101560.30;1688380;84;21718;-78
2021/11/13 08:55:18;;;;;;;60.73;32.33;;;;;;;6.75;84.92;101560.86;1688401;84;21074;-81
2021/11/13 08:57:45;;;;;;;59.15;30.97;;;;;;;6.75;84.91;101562.16;1688343;83;21069;-80
2021/11/13 09:00:14;;;;;;;60.17;32.58;;;;;;;6.79;85.02;101564.12;1688157;82;21073;-81
2021/11/13 09:02:41;;;;;;;62.40;33.20;;;;;;;6.82;84.96;101559.06;1688347;84;21085;-80
2021/11/13 09:05:08;;;;;;;56.08;32.25;;;;;;;6.87;84.99;101554.05;1688158;84;21903;-81
2021/11/13 09:07:35;;;;;;;59.33;33.33;;;;;;;6.90;84.93;101559.47;1688292;83;21607;-80
2021/11/13 09:10:04;;;;;;;57.93;32.03;;;;;;;6.92;84.91;101554.79;1688499;83;21762;-81
2021/11/13 09:12:31;;;;;;;56.58;33.02;;;;;;;6.94;84.95;101550.53;1688612;84;21196;-80
2021/11/13 09:15:03;;;;;;;65.00;32.83;;;;;;;6.98;84.90;101555.13;1688492;83;21089;-81
2021/11/13 09:17:31;;;;;;;58.15;32.05;;;;;;;7.05;84.88;101564.19;1688467;84;21730;-81
2021/11/13 09:19:58;;;;;;;56.40;32.15;;;;;;;7.07;84.79;101557.31;1688481;83;21078;-80
2021/11/13 09:22:25;;;;;;;74.40;44.98;;;;;;;7.08;84.70;101554.31;1688329;83;21006;-81
2021/11/13 09:24:51;;;;;;;81.53;50.30;;;;;;;7.07;84.61;101563.86;1688466;84;21105;-81
2021/11/13 09:27:19;;;;;;;90.57;56.23;;;;;;;7.09;84.67;101558.28;1688519;83;21081;-81
2021/11/13 09:29:46;;;;;;;125.15;82.42;;;;;;;7.10;84.64;101559.21;1688321;84;22576;-80
2021/11/13 09:32:14;;;;;;;66.90;40.03;;;;;;;7.13;84.69;101563.28;1688303;84;21098;-81
2021/11/13 09:34:41;;;;;;;60.23;35.20;;;;;;;7.15;84.60;101557.32;1688502;84;21121;-80
2021/11/13 09:37:07;;;;;;;126.58;80.00;;;;;;;7.18;84.62;101557.88;1688427;84;21528;-81
2021/11/13 09:39:37;;;;;;;86.00;53.95;;;;;;;7.20;84.56;101551.89;1688615;84;21105;-80
2021/11/13 09:42:05;;;;;;;66.02;39.70;;;;;;;7.24;84.54;101552.06;1687514;84;21081;-81
2021/11/13 09:44:32;;;;;;;58.65;34.38;;;;;;;7.26;84.46;101550.41;1688284;83;21141;-81
2021/11/13 09:46:59;;;;;;;54.77;34.13;;;;;;;7.26;84.40;101548.69;1658956;84;21081;-80
2021/11/13 09:49:28;;;;;;;56.10;34.13;;;;;;;7.25;84.27;101549.94;1688302;84;21077;-81
2021/11/13 09:51:55;;;;;;;57.30;36.05;;;;;;;7.22;84.23;101547.16;1688403;83;21085;-80
2021/11/13 09:54:22;;;;;;;54.23;33.40;;;;;;;7.23;84.23;101543.73;1688600;84;21742;-81
2021/11/13 09:56:49;;;;;;;58.20;35.30;;;;;;;7.20;84.15;101544.03;1659215;84;21322;-81
2021/11/13 09:59:16;;;;;;;53.15;30.57;;;;;;;7.25;84.34;101547.33;1689622;83;21081;-80
2021/11/13 10:01:43;;;;;;;80.45;49.55;;;;;;;7.28;84.32;101550.08;1691887;84;22227;-80
2021/11/13 10:04:10;;;;;;;58.40;36.17;;;;;;;7.29;84.22;101558.02;1692165;84;21120;-81
2021/11/13 10:06:37;;;;;;;57.45;32.13;;;;;;;7.29;84.19;101558.02;1692033;84;22323;-80
2021/11/13 10:09:04;;;;;;;51.40;31.15;;;;;;;7.29;84.14;101558.02;1691958;84;21140;-81
2021/11/13 10:11:31;;;;;;;50.58;31.37;;;;;;;7.28;84.08;101547.08;1691727;84;21390;-80
2021/11/13 10:13:59;;;;;;;51.68;29.95;;;;;;;7.28;84.10;101554.92;1665676;84;21084;-80
2021/11/13 10:16:39;;;;;;;58.23;34.50;;;;;;;7.32;84.12;101546.79;1692274;84;21085;-81
2021/11/13 10:19:12;;;;;;;52.05;30.85;;;;;;;7.27;83.97;101543.95;1692042;84;21771;-81
2021/11/13 10:21:41;;;;;;;64.47;38.48;;;;;;;7.31;84.08;101562.03;1692379;84;21097;-81
2021/11/13 10:24:17;;;;;;;58.65;34.58;;;;;;;7.33;84.08;101563.01;1692287;84;21097;-81
2021/11/13 10:26:50;;;;;;;52.48;31.77;;;;;;;7.32;83.98;101559.50;1692329;84;21069;-82
2021/11/13 10:29:24;;;;;;;54.80;32.17;;;;;;;7.33;84.02;101545.98;1692353;84;21117;-81
2021/11/13 10:31:56;;;;;;;52.62;33.45;;;;;;;7.35;84.01;101550.88;1691715;84;21661;-82
2021/11/13 10:34:34;;;;;;;58.55;34.40;;;;;;;7.38;83.98;101556.29;1666057;84;21026;-81
2021/11/13 10:37:07;;;;;;;49.75;30.92;;;;;;;7.40;84.05;101559.88;1691984;84;21097;-81
2021/11/13 10:39:41;;;;;;;50.10;31.97;;;;;;;7.44;84.02;101556.59;1691992;84;21172;-81
2021/11/13 10:42:11;;;;;;;52.40;31.45;;;;;;;;;;1692319;84;21359;-81
2021/11/13 10:44:51;;;;;;;54.10;33.48;;;;;;;7.49;83.96;101559.05;1692155;84;22575;-81
2021/11/13 10:47:31;;;;;;;51.95;31.62;;;;;;;7.50;83.92;101556.89;1691996;84;21097;-81
2021/11/13 10:50:20;;;;;;;139.88;92.72;;;;;;;7.53;83.98;101552.23;1692142;84;21637;-81
2021/11/13 10:53:08;;;;;;;85.20;53.98;;;;;;;7.54;83.92;101556.64;1692071;84;21148;-81
2021/11/13 10:55:35;;;;;;;72.62;48.25;;;;;;;7.57;83.99;101551.14;1692017;84;21069;-81
2021/11/13 10:58:37;;;;;;;75.03;46.08;;;;;;;7.59;83.96;101541.64;1691847;84;21878;-81
2021/11/13 11:01:11;;;;;;;64.07;40.20;;;;;;;7.64;83.97;101547.12;1688231;82;21097;-80
2021/11/13 11:03:42;;;;;;;60.10;36.33;;;;;;;7.69;83.93;101541.67;1687911;83;21050;-82
2021/11/13 11:06:12;;;;;;;61.68;36.17;;;;;;;7.71;83.82;101543.06;1688510;84;21113;-83
2021/11/13 11:08:41;;;;;;;61.92;37.33;;;;;;;7.71;83.75;101532.58;1658249;83;21138;-82
2021/11/13 11:11:34;;;;;;;67.17;41.55;;;;;;;7.67;83.62;101534.15;1664437;86;21761;-81
2021/11/13 11:14:08;;;;;;;78.30;47.45;;;;;;;7.65;83.64;101518.77;1690077;83;21655;-85
2021/11/13 11:16:40;;;;;;;89.52;50.50;;;;;;;7.65;83.64;101522.70;1683007;84;21058;-83
2021/11/13 11:19:20;;;;;;;63.15;38.00;;;;;;;7.63;83.60;101523.45;1692745;83;21088;-84
2021/11/13 11:22:05;;;;;;;84.62;48.10;;;;;;;7.60;83.54;101522.88;1690812;84;21119;-83